createdAt,value
2022-10-18T00:02:46.637Z,15.60
2022-10-18T00:05:56.768Z,17.20
2022-10-18T00:09:04.548Z,14.90
2022-10-18T00:12:11.564Z,18.00
2022-10-18T00:15:21.568Z,16.10
2022-10-18T00:18:31.571Z,17.70
2022-10-18T00:21:41.590Z,16.00
2022-10-18T00:24:48.554Z,15.20
2022-10-18T00:27:55.647Z,15.00
2022-10-18T00:31:02.605Z,15.70
2022-10-18T00:34:12.586Z,15.00
2022-10-18T00:37:22.665Z,16.40
2022-10-18T00:40:35.672Z,15.60
2022-10-18T00:43:45.626Z,16.50
2022-10-18T00:46:52.611Z,14.80
2022-10-18T00:49:59.652Z,14.30
2022-10-18T00:53:09.667Z,14.60
2022-10-18T00:56:16.696Z,14.80
2022-10-18T00:59:26.668Z,14.30
2022-10-18T01:02:33.876Z,14.20
2022-10-18T01:05:41.685Z,14.90
2022-10-18T01:08:48.818Z,17.00
2022-10-18T01:11:56.718Z,14.40
2022-10-18T01:15:08.711Z,11.70
2022-10-18T01:18:15.805Z,16.60
2022-10-18T01:21:25.771Z,12.50
2022-10-18T01:24:35.802Z,13.60
2022-10-18T01:27:42.777Z,13.30
2022-10-18T01:30:52.806Z,12.70
2022-10-18T01:37:14.747Z,14.80
2022-10-18T01:40:22.576Z,15.20
2022-10-18T01:43:29.757Z,12.90
2022-10-18T01:46:39.775Z,13.10
2022-10-18T01:49:46.774Z,15.40
2022-10-18T01:52:56.773Z,15.20
2022-10-18T01:56:03.802Z,14.70
2022-10-18T01:59:10.792Z,16.10
2022-10-18T02:02:17.770Z,15.00
2022-10-18T02:05:24.792Z,13.20
2022-10-18T02:08:31.816Z,16.10
2022-10-18T02:11:38.861Z,13.70
2022-10-18T02:14:45.812Z,16.30
2022-10-18T02:17:52.903Z,13.80
2022-10-18T02:21:02.919Z,14.70
2022-10-18T02:24:12.910Z,15.20
2022-10-18T02:27:26.524Z,15.30
2022-10-18T02:30:33.898Z,12.90
2022-10-18T02:33:40.915Z,14.20
2022-10-18T02:36:53.953Z,15.20
2022-10-18T02:40:03.884Z,14.00
2022-10-18T02:43:10.940Z,18.00
2022-10-18T02:46:17.983Z,16.00
2022-10-18T02:49:24.970Z,16.30
2022-10-18T02:52:34.954Z,19.50
2022-10-18T02:55:41.895Z,15.40
2022-10-18T02:58:49.061Z,16.00
2022-10-18T03:01:58.984Z,16.40
2022-10-18T03:05:06.029Z,18.00
2022-10-18T03:08:18.968Z,13.50
2022-10-18T03:11:27.027Z,14.40
2022-10-18T03:14:33.987Z,13.70
2022-10-18T03:17:41.088Z,12.70
2022-10-18T03:20:48.008Z,12.10
2022-10-18T03:23:55.052Z,16.30
2022-10-18T03:27:05.043Z,14.60
2022-10-18T03:30:12.030Z,15.60
2022-10-18T03:33:19.077Z,14.40
2022-10-18T03:36:26.025Z,14.40
2022-10-18T03:39:41.054Z,12.90
2022-10-18T03:42:48.111Z,13.00
2022-10-18T03:45:58.092Z,13.40
2022-10-18T03:49:05.066Z,14.80
2022-10-18T03:52:12.055Z,15.60
2022-10-18T03:55:19.067Z,15.50
2022-10-18T03:58:26.169Z,18.30
2022-10-18T04:01:36.433Z,14.60
2022-10-18T04:04:46.111Z,15.20
2022-10-18T04:07:53.146Z,15.20
2022-10-18T04:11:00.196Z,13.80
2022-10-18T04:14:13.321Z,14.10
2022-10-18T04:17:27.159Z,18.00
2022-10-18T04:20:34.169Z,13.50
2022-10-18T04:23:41.237Z,14.20
2022-10-18T04:26:48.205Z,18.00
2022-10-18T04:29:55.197Z,16.80
2022-10-18T04:33:05.185Z,14.80
2022-10-18T04:36:12.268Z,16.30
2022-10-18T04:39:19.277Z,15.60
2022-10-18T04:42:29.285Z,15.10
2022-10-18T04:45:39.546Z,17.90
2022-10-18T04:48:46.175Z,15.40
2022-10-18T04:51:59.454Z,18.40
2022-10-18T04:55:12.271Z,14.60
2022-10-18T04:58:19.265Z,16.30
2022-10-18T05:01:26.291Z,15.80
2022-10-18T05:04:33.298Z,19.20
2022-10-18T05:07:43.615Z,23.90
2022-10-18T05:10:51.288Z,22.30
2022-10-18T05:13:58.314Z,19.70
2022-10-18T05:17:08.311Z,21.20
2022-10-18T05:23:22.329Z,24.80
2022-10-18T05:26:32.337Z,15.90
2022-10-18T05:29:42.342Z,21.90
2022-10-18T05:32:49.311Z,31.60
2022-10-18T05:35:56.422Z,27.40
2022-10-18T05:39:06.363Z,23.40
2022-10-18T05:42:13.361Z,25.00
2022-10-18T05:45:20.328Z,21.00
2022-10-18T05:48:27.396Z,17.00
2022-10-18T05:51:34.379Z,18.20
2022-10-18T05:54:41.405Z,18.30
2022-10-18T05:57:51.484Z,19.20
2022-10-18T06:01:01.475Z,15.80
2022-10-18T06:04:11.370Z,17.80
2022-10-18T06:07:18.432Z,15.30
2022-10-18T06:10:25.419Z,13.00
2022-10-18T06:13:35.488Z,19.70
2022-10-18T06:16:42.424Z,16.60
2022-10-18T06:19:49.466Z,22.50
2022-10-18T06:22:58.532Z,20.20
2022-10-18T06:26:05.529Z,22.10
2022-10-18T06:29:16.108Z,20.50
2022-10-18T06:32:23.450Z,19.40
2022-10-18T06:35:30.493Z,24.00
2022-10-18T06:38:40.500Z,24.10
2022-10-18T06:41:50.517Z,26.80
2022-10-18T06:44:57.515Z,23.20
2022-10-18T06:48:07.631Z,27.10
2022-10-18T06:51:17.550Z,31.70
2022-10-18T06:54:24.623Z,19.20
2022-10-18T06:57:34.587Z,22.10
2022-10-18T07:00:41.561Z,20.00
2022-10-18T07:04:00.545Z,19.00
2022-10-18T07:07:07.594Z,22.50
2022-10-18T07:10:14.597Z,19.20
2022-10-18T07:13:32.366Z,21.30
2022-10-18T07:16:40.655Z,23.90
2022-10-18T07:19:47.563Z,21.00
2022-10-18T07:22:54.626Z,21.20
2022-10-18T07:29:18.690Z,18.50
2022-10-18T07:32:25.637Z,17.50
2022-10-18T07:35:35.667Z,22.20
2022-10-18T07:38:45.702Z,20.00
2022-10-18T07:41:55.729Z,19.90
2022-10-18T07:45:09.697Z,23.30
2022-10-18T07:48:19.855Z,20.00
2022-10-18T07:51:26.698Z,23.00
2022-10-18T07:54:36.803Z,16.70
2022-10-18T07:57:46.719Z,68.60
2022-10-18T08:00:56.728Z,66.80
2022-10-18T08:04:07.495Z,21.60
2022-10-18T08:07:16.812Z,16.20
2022-10-18T08:11:11.751Z,17.40
2022-10-18T08:14:22.710Z,21.90
2022-10-18T08:17:32.964Z,18.10
2022-10-18T08:20:44.777Z,17.60
2022-10-18T08:23:56.730Z,17.50
2022-10-18T08:27:11.995Z,15.50
2022-10-18T08:30:24.175Z,15.90
2022-10-18T08:33:54.154Z,15.50
2022-10-18T08:37:12.294Z,18.20
2022-10-18T08:40:40.018Z,14.20
2022-10-18T08:43:50.978Z,13.90
2022-10-18T08:47:05.858Z,16.70
2022-10-18T08:50:17.925Z,12.70
2022-10-18T08:53:27.842Z,15.00
2022-10-18T08:56:34.865Z,19.30
2022-10-18T08:59:45.877Z,16.90
2022-10-18T09:02:52.958Z,14.50
2022-10-18T09:06:02.938Z,14.00
2022-10-18T09:09:09.926Z,13.90
2022-10-18T09:12:19.885Z,12.60
2022-10-18T09:15:29.870Z,16.10
2022-10-18T09:18:40.846Z,13.90
2022-10-18T09:21:47.926Z,14.80
2022-10-18T09:24:57.941Z,11.20
2022-10-18T09:28:04.981Z,11.90
2022-10-18T09:31:11.977Z,10.20
2022-10-18T09:34:18.943Z,14.30
2022-10-18T09:37:28.934Z,11.30
2022-10-18T09:40:39.080Z,12.70
2022-10-18T09:43:51.982Z,11.00
2022-10-18T09:47:01.951Z,12.50
2022-10-18T09:50:12.037Z,11.00
2022-10-18T09:53:22.080Z,10.40
2022-10-18T09:56:32.116Z,10.40
2022-10-18T09:59:40.006Z,12.30
2022-10-18T10:02:53.110Z,14.00
2022-10-18T10:06:04.089Z,14.10
2022-10-18T10:09:20.117Z,8.80
2022-10-18T10:12:37.206Z,12.40
2022-10-18T10:15:52.468Z,15.30
2022-10-18T10:19:09.835Z,13.10
2022-10-18T10:22:25.125Z,11.20
2022-10-18T10:25:35.078Z,10.10
2022-10-18T10:28:45.148Z,12.80
2022-10-18T10:31:57.064Z,13.90
2022-10-18T10:35:13.582Z,10.50
2022-10-18T10:38:31.120Z,9.70
2022-10-18T10:41:41.119Z,11.80
2022-10-18T10:44:51.123Z,11.30
2022-10-18T10:48:01.270Z,12.20
2022-10-18T10:51:11.134Z,13.70
2022-10-18T10:54:18.149Z,11.20
2022-10-18T10:57:25.206Z,13.60
2022-10-18T11:00:32.194Z,12.90
2022-10-18T11:03:42.226Z,12.10
2022-10-18T11:06:52.215Z,14.50
2022-10-18T11:10:02.196Z,15.80
2022-10-18T11:13:13.255Z,16.60
2022-10-18T11:16:26.198Z,13.60
2022-10-18T11:19:36.237Z,11.60
2022-10-18T11:22:46.214Z,10.10
2022-10-18T11:26:00.205Z,9.40
2022-10-18T11:29:07.304Z,10.70
2022-10-18T11:32:17.267Z,12.40
2022-10-18T11:35:24.360Z,11.80
2022-10-18T11:38:37.249Z,11.70
2022-10-18T11:41:50.211Z,8.60
2022-10-18T11:44:57.255Z,13.70
2022-10-18T11:48:07.346Z,12.90
2022-10-18T11:51:14.272Z,16.00
2022-10-18T11:54:21.307Z,14.50
2022-10-18T11:57:31.508Z,9.80
2022-10-18T12:00:42.320Z,10.30
2022-10-18T12:03:52.334Z,12.70
2022-10-18T12:07:02.374Z,17.10
2022-10-18T12:10:12.513Z,11.90
2022-10-18T12:13:22.345Z,15.10
2022-10-18T12:16:50.581Z,14.50
2022-10-18T12:20:18.345Z,13.60
2022-10-18T12:23:29.377Z,12.00
2022-10-18T12:26:39.362Z,10.20
2022-10-18T12:29:50.648Z,11.10
2022-10-18T12:33:09.944Z,13.50
2022-10-18T12:36:26.445Z,11.60
2022-10-18T12:39:50.503Z,12.10
2022-10-18T12:43:06.354Z,17.30
2022-10-18T12:46:14.048Z,13.60
2022-10-18T12:49:22.379Z,11.70
2022-10-18T12:52:32.475Z,11.70
2022-10-18T12:58:57.451Z,11.90
2022-10-18T13:02:07.426Z,10.60
2022-10-18T13:05:26.950Z,9.70
2022-10-18T13:08:41.572Z,9.60
2022-10-18T13:11:49.505Z,12.60
2022-10-18T13:15:12.773Z,12.80
2022-10-18T13:18:29.538Z,12.70
2022-10-18T13:21:36.601Z,14.70
2022-10-18T13:24:48.560Z,9.70
2022-10-18T13:31:41.525Z,13.90
2022-10-18T13:34:51.644Z,10.90
2022-10-18T13:38:05.566Z,9.30
2022-10-18T13:41:13.776Z,10.30
2022-10-18T13:44:21.604Z,13.50
2022-10-18T13:47:28.617Z,11.40
2022-10-18T13:50:35.580Z,11.20
2022-10-18T13:53:42.598Z,12.50
2022-10-18T13:56:52.644Z,9.10
2022-10-18T14:00:02.885Z,9.40
2022-10-18T14:03:31.656Z,9.60
2022-10-18T14:06:43.685Z,11.20
2022-10-18T14:09:52.385Z,11.10
2022-10-18T14:13:01.669Z,11.20
2022-10-18T14:16:11.729Z,10.70
2022-10-18T14:19:21.739Z,15.80
2022-10-18T14:22:35.019Z,13.40
2022-10-18T14:25:42.690Z,13.80
2022-10-18T14:28:59.963Z,10.20
2022-10-18T14:32:07.717Z,10.70
2022-10-18T14:35:31.472Z,18.40
2022-10-18T14:38:39.742Z,14.10
2022-10-18T14:41:46.712Z,13.20
2022-10-18T14:44:54.395Z,12.10
2022-10-18T14:48:02.756Z,15.20
2022-10-18T14:51:18.824Z,13.00
2022-10-18T14:54:32.070Z,13.80
2022-10-18T14:57:39.743Z,12.30
2022-10-18T15:00:48.544Z,15.50
2022-10-18T15:03:55.777Z,12.70
2022-10-18T15:07:05.880Z,14.70
2022-10-18T15:10:12.834Z,13.40
2022-10-18T15:13:22.793Z,14.20
2022-10-18T15:16:35.897Z,13.00
2022-10-18T15:19:42.794Z,14.30
2022-10-18T15:22:50.017Z,15.00
2022-10-18T15:25:57.824Z,17.10
2022-10-18T15:29:06.923Z,18.50
2022-10-18T15:32:14.815Z,18.30
2022-10-18T15:35:25.910Z,18.90
2022-10-18T15:38:36.858Z,16.70
2022-10-18T15:41:43.883Z,17.00
2022-10-18T15:44:57.990Z,17.50
2022-10-18T15:48:06.873Z,20.40
2022-10-18T15:51:16.905Z,22.30
2022-10-18T15:54:23.876Z,22.50
2022-10-18T15:57:31.394Z,22.00
2022-10-18T16:00:43.320Z,19.10
2022-10-18T16:03:50.934Z,23.00
2022-10-18T16:07:00.935Z,28.50
2022-10-18T16:10:07.947Z,25.60
2022-10-18T16:13:18.093Z,26.80
2022-10-18T16:16:27.952Z,27.30
2022-10-18T16:19:34.958Z,30.50
2022-10-18T16:22:45.098Z,30.40
2022-10-18T16:25:52.943Z,27.80
2022-10-18T16:29:00.754Z,32.50
2022-10-18T16:32:07.999Z,30.40
2022-10-18T16:35:21.021Z,32.80
2022-10-18T16:38:35.252Z,31.90
2022-10-18T16:41:43.034Z,32.80
2022-10-18T16:44:56.076Z,36.60
2022-10-18T16:48:17.013Z,31.50
2022-10-18T16:51:27.057Z,30.80
2022-10-18T16:54:34.039Z,27.00
2022-10-18T16:57:41.018Z,33.00
2022-10-18T17:00:48.057Z,30.10
2022-10-18T17:03:57.153Z,29.40
2022-10-18T17:07:07.080Z,32.40
2022-10-18T17:10:14.076Z,30.50
2022-10-18T17:13:27.045Z,30.10
2022-10-18T17:16:43.570Z,26.90
2022-10-18T17:19:53.116Z,35.90
2022-10-18T17:23:01.101Z,30.80
2022-10-18T17:26:27.651Z,31.00
2022-10-18T17:29:36.129Z,34.20
2022-10-18T17:32:43.151Z,32.00
2022-10-18T17:35:53.129Z,31.10
2022-10-18T17:39:00.163Z,32.20
2022-10-18T17:42:07.254Z,30.90
2022-10-18T17:45:20.146Z,29.60
2022-10-18T17:48:27.132Z,28.50
2022-10-18T17:51:34.243Z,29.60
2022-10-18T17:54:44.179Z,29.30
2022-10-18T17:57:51.258Z,31.60
2022-10-18T18:01:01.233Z,31.50
2022-10-18T18:04:11.223Z,37.50
2022-10-18T18:07:18.208Z,31.50
2022-10-18T18:10:28.265Z,32.30
2022-10-18T18:13:35.264Z,32.60
2022-10-18T18:19:58.304Z,30.30
2022-10-18T18:23:08.484Z,39.00
2022-10-18T18:26:16.267Z,33.40
2022-10-18T18:29:23.333Z,39.40
2022-10-18T18:32:33.571Z,34.90
2022-10-18T18:35:41.494Z,32.70
2022-10-18T18:38:55.482Z,32.70
2022-10-18T18:42:11.297Z,34.80
2022-10-18T18:45:24.293Z,37.30
2022-10-18T18:48:39.390Z,34.50
2022-10-18T18:51:46.293Z,39.20
2022-10-18T18:54:56.306Z,38.50
2022-10-18T18:58:07.310Z,42.70
2022-10-18T19:01:17.467Z,46.00
2022-10-18T19:04:25.355Z,45.60
2022-10-18T19:07:32.707Z,45.10
2022-10-18T19:10:40.406Z,47.00
2022-10-18T19:13:47.406Z,45.40
2022-10-18T19:17:01.350Z,45.10
2022-10-18T19:20:08.569Z,43.40
2022-10-18T19:23:16.540Z,48.10
2022-10-18T19:26:24.432Z,48.90
2022-10-18T19:29:31.452Z,45.70
2022-10-18T19:32:38.473Z,45.10
2022-10-18T19:35:48.478Z,42.10
2022-10-18T19:38:55.424Z,46.00
2022-10-18T19:42:05.471Z,50.40
2022-10-18T19:45:15.470Z,47.00
2022-10-18T19:48:28.491Z,49.60
2022-10-18T19:51:35.493Z,47.50
2022-10-18T19:54:45.495Z,45.30
2022-10-18T19:57:55.468Z,44.50
2022-10-18T20:01:02.873Z,51.90
2022-10-18T20:04:12.530Z,56.60
2022-10-18T20:07:25.536Z,47.20
2022-10-18T20:10:36.574Z,47.90
2022-10-18T20:13:46.548Z,47.00
2022-10-18T20:16:59.567Z,45.80
2022-10-18T20:20:09.556Z,48.40
2022-10-18T20:23:19.538Z,42.70
2022-10-18T20:26:26.653Z,42.90
2022-10-18T20:29:34.588Z,39.90
2022-10-18T20:32:41.718Z,45.10
2022-10-18T20:35:52.209Z,40.00
2022-10-18T20:38:59.540Z,42.60
2022-10-18T20:42:06.607Z,41.20
2022-10-18T20:45:16.611Z,39.90
2022-10-18T20:48:26.586Z,40.30
2022-10-18T20:51:33.610Z,42.10
2022-10-18T20:54:40.690Z,40.10
2022-10-18T20:57:51.471Z,41.20
2022-10-18T21:00:58.699Z,40.30
2022-10-18T21:04:06.666Z,39.00
2022-10-18T21:07:16.744Z,40.70
2022-10-18T21:10:23.695Z,39.80
2022-10-18T21:13:31.682Z,39.00
2022-10-18T21:16:38.648Z,39.50
2022-10-18T21:19:45.715Z,34.50
2022-10-18T21:22:52.748Z,37.50
2022-10-18T21:26:02.732Z,34.30
2022-10-18T21:29:09.794Z,36.40
2022-10-18T21:32:17.735Z,32.00
2022-10-18T21:35:27.698Z,33.90
2022-10-18T21:38:34.846Z,30.40
2022-10-18T21:41:44.733Z,35.00
2022-10-18T21:44:51.772Z,33.70
2022-10-18T21:48:01.721Z,30.60
2022-10-18T21:51:08.791Z,30.30
2022-10-18T21:54:18.749Z,29.30
2022-10-18T21:57:25.822Z,29.10
2022-10-18T22:00:36.993Z,29.50
2022-10-18T22:03:46.793Z,30.80
2022-10-18T22:06:53.844Z,32.10
2022-10-18T22:10:03.817Z,31.00
2022-10-18T22:13:10.817Z,30.20
2022-10-18T22:16:20.798Z,31.10
2022-10-18T22:19:30.826Z,28.80
2022-10-18T22:22:37.842Z,27.70
2022-10-18T22:25:44.912Z,24.20
2022-10-18T22:28:54.868Z,25.20
2022-10-18T22:32:01.870Z,29.30
2022-10-18T22:35:11.953Z,27.00
2022-10-18T22:38:21.902Z,24.80
2022-10-18T22:41:31.901Z,24.90
2022-10-18T22:44:38.928Z,24.40
2022-10-18T22:47:45.867Z,22.20
2022-10-18T22:50:52.907Z,22.50
2022-10-18T22:54:02.884Z,24.70
2022-10-18T22:57:09.935Z,24.40
2022-10-18T23:00:16.946Z,23.10
2022-10-18T23:03:23.963Z,24.10
2022-10-18T23:06:33.977Z,23.30
2022-10-18T23:12:47.960Z,24.40
2022-10-18T23:15:55.033Z,23.40
2022-10-18T23:19:01.992Z,24.40
2022-10-18T23:22:12.034Z,19.80
2022-10-18T23:25:22.012Z,22.70
2022-10-18T23:28:29.055Z,22.30
2022-10-18T23:31:38.989Z,19.90
2022-10-18T23:34:46.002Z,20.30
2022-10-18T23:37:53.033Z,20.40
2022-10-18T23:41:03.129Z,22.00
2022-10-18T23:44:16.036Z,23.80
2022-10-18T23:47:23.154Z,22.50
2022-10-18T23:50:33.056Z,19.10
2022-10-18T23:53:46.085Z,19.90
2022-10-18T23:56:53.070Z,21.50
